createdAt,value
2022-11-28T00:01:30.232Z,99343.97
2022-11-28T00:03:57.575Z,99337.56
2022-11-28T00:06:26.486Z,99331.88
2022-11-28T00:08:54.325Z,99331.19
2022-11-28T00:11:21.760Z,99340.47
2022-11-28T00:13:49.022Z,99331.78
2022-11-28T00:16:21.724Z,99323.50
2022-11-28T00:18:50.343Z,99339.28
2022-11-28T00:21:19.315Z,99330.88
2022-11-28T00:23:47.934Z,99323.78
2022-11-28T00:26:19.757Z,99324.09
2022-11-28T00:28:47.771Z,99320.84
2022-11-28T00:31:18.679Z,99325.56
2022-11-28T00:33:46.323Z,99329.69
2022-11-28T00:36:14.206Z,99318.44
2022-11-28T00:38:42.077Z,99322.50
2022-11-28T00:41:11.494Z,99320.41
2022-11-28T00:43:38.797Z,99323.22
2022-11-28T00:46:06.794Z,99318.78
2022-11-28T00:48:35.304Z,99312.84
2022-11-28T00:51:15.658Z,99309.56
2022-11-28T00:53:44.128Z,99306.25
2022-11-28T00:56:13.435Z,99296.59
2022-11-28T00:58:41.681Z,99299.16
2022-11-28T01:01:21.858Z,99299.16
2022-11-28T01:03:51.243Z,99290.84
2022-11-28T01:06:27.829Z,99295.53
2022-11-28T01:08:55.763Z,99290.72
2022-11-28T01:11:23.440Z,99288.69
2022-11-28T01:13:50.733Z,99290.47
2022-11-28T01:16:18.413Z,99283.13
2022-11-28T01:18:45.559Z,99286.25
2022-11-28T01:21:12.933Z,99279.19
2022-11-28T01:23:39.956Z,99275.44
2022-11-28T01:26:12.178Z,99266.44
2022-11-28T01:28:39.671Z,99267.41
2022-11-28T01:31:10.011Z,99263.06
2022-11-28T01:33:38.131Z,99253.25
2022-11-28T01:36:06.449Z,99270.22
2022-11-28T01:38:34.521Z,99255.84
2022-11-28T01:41:02.258Z,99252.03
2022-11-28T01:43:29.345Z,99244.75
2022-11-28T01:45:57.274Z,99243.25
2022-11-28T01:48:34.512Z,99237.94
2022-11-28T01:51:06.195Z,99230.97
2022-11-28T01:53:36.696Z,99231.09
2022-11-28T01:56:16.030Z,99237.97
2022-11-28T01:58:49.373Z,99234.78
2022-11-28T02:01:18.412Z,99232.16
2022-11-28T02:03:48.256Z,99230.81
2022-11-28T02:06:19.273Z,99227.78
2022-11-28T02:08:46.528Z,99236.72
2022-11-28T02:11:42.170Z,99221.25
2022-11-28T02:14:27.630Z,99231.72
2022-11-28T02:17:34.806Z,99218.94
2022-11-28T02:20:29.475Z,99216.56
2022-11-28T02:23:26.079Z,99210.22
2022-11-28T02:26:20.880Z,99215.81
2022-11-28T02:29:07.170Z,99215.44
2022-11-28T02:31:37.449Z,99209.03
2022-11-28T02:34:19.258Z,99199.13
2022-11-28T02:37:01.087Z,99202.47
2022-11-28T02:40:14.847Z,99200.66
2022-11-28T02:42:55.251Z,99196.72
2022-11-28T02:45:37.085Z,99184.91
2022-11-28T02:48:44.294Z,99184.13
2022-11-28T02:51:16.151Z,99191.09
2022-11-28T02:53:46.630Z,99182.38
2022-11-28T02:56:14.326Z,99181.22
2022-11-28T02:58:41.451Z,99178.25
2022-11-28T03:01:19.508Z,99169.97
2022-11-28T03:04:40.602Z,99171.09
2022-11-28T03:07:49.646Z,99175.59
2022-11-28T03:10:31.943Z,99170.69
2022-11-28T03:13:44.207Z,99165.38
2022-11-28T03:16:11.247Z,99169.84
2022-11-28T03:18:45.249Z,99164.91
2022-11-28T03:21:38.734Z,99163.22
2022-11-28T03:24:13.227Z,99160.34
2022-11-28T03:26:45.474Z,99157.91
2022-11-28T03:29:21.128Z,99169.97
2022-11-28T03:31:54.180Z,99156.22
2022-11-28T03:34:25.196Z,99160.19
2022-11-28T03:37:01.675Z,99162.13
2022-11-28T03:39:35.251Z,99163.69
2022-11-28T03:42:21.427Z,99156.34
2022-11-28T03:45:16.201Z,99155.28
2022-11-28T03:47:47.620Z,99151.22
2022-11-28T03:50:21.019Z,99155.59
2022-11-28T03:52:57.049Z,99148.75
2022-11-28T03:55:38.088Z,99144.47
2022-11-28T03:58:43.431Z,99146.66
2022-11-28T04:01:18.268Z,99148.47
2022-11-28T04:04:06.163Z,99154.69
2022-11-28T04:07:01.683Z,99151.50
2022-11-28T04:09:54.836Z,99146.00
2022-11-28T04:12:35.522Z,99133.84
2022-11-28T04:15:17.314Z,99143.63
2022-11-28T04:17:58.754Z,99137.03
2022-11-28T04:20:35.430Z,99135.13
2022-11-28T04:23:08.437Z,99134.59
2022-11-28T04:25:40.367Z,99131.94
2022-11-28T04:28:13.639Z,99135.16
2022-11-28T04:30:44.691Z,99128.25
2022-11-28T04:33:15.721Z,99133.72
2022-11-28T04:35:50.011Z,99142.28
2022-11-28T04:38:18.726Z,99136.00
2022-11-28T04:40:59.708Z,99139.72
2022-11-28T04:43:34.037Z,99140.19
2022-11-28T04:46:10.045Z,99138.53
2022-11-28T04:48:38.021Z,99141.81
2022-11-28T04:51:18.447Z,99147.41
2022-11-28T04:53:59.555Z,99148.94
2022-11-28T04:56:34.727Z,99148.34
2022-11-28T04:59:06.730Z,99148.53
2022-11-28T05:01:36.571Z,99146.28
2022-11-28T05:04:04.362Z,99147.84
2022-11-28T05:06:34.469Z,99147.66
2022-11-28T05:09:02.155Z,99153.97
2022-11-28T05:11:29.521Z,99148.38
2022-11-28T05:13:56.881Z,99154.50
2022-11-28T05:16:24.258Z,99163.09
2022-11-28T05:18:52.385Z,99155.88
2022-11-28T05:21:19.483Z,99148.59
2022-11-28T05:23:47.317Z,99153.75
2022-11-28T05:26:20.457Z,99156.25
2022-11-28T05:28:51.597Z,99148.97
2022-11-28T05:31:21.126Z,99151.13
2022-11-28T05:33:48.580Z,99155.91
2022-11-28T05:36:17.518Z,99151.22
2022-11-28T05:38:45.245Z,99141.16
2022-11-28T05:41:27.574Z,99139.53
2022-11-28T05:43:56.557Z,99143.06
2022-11-28T05:46:24.486Z,99140.97
2022-11-28T05:48:52.588Z,99146.28
2022-11-28T05:51:19.882Z,99152.94
2022-11-28T05:53:47.318Z,99148.06
2022-11-28T05:56:18.301Z,99144.28
2022-11-28T05:58:46.059Z,99141.28
2022-11-28T06:01:19.273Z,99145.75
2022-11-28T06:03:47.361Z,99127.91
2022-11-28T06:06:20.101Z,99133.00
2022-11-28T06:08:49.108Z,99130.94
2022-11-28T06:11:16.928Z,99135.34
2022-11-28T06:13:46.561Z,99137.00
2022-11-28T06:16:16.526Z,99134.44
2022-11-28T06:18:44.342Z,99135.69
2022-11-28T06:21:13.102Z,99134.47
2022-11-28T06:23:41.786Z,99133.34
2022-11-28T06:26:15.055Z,99136.56
2022-11-28T06:28:42.795Z,99145.31
2022-11-28T06:31:12.373Z,99142.22
2022-11-28T06:33:40.423Z,99137.94
2022-11-28T06:36:08.202Z,99136.56
2022-11-28T06:38:35.800Z,99139.38
2022-11-28T06:41:08.639Z,99143.44
2022-11-28T06:43:36.832Z,99147.41
2022-11-28T06:46:04.569Z,99147.69
2022-11-28T06:48:32.804Z,99140.56
2022-11-28T06:51:06.181Z,99144.03
2022-11-28T06:53:34.419Z,99134.41
2022-11-28T06:56:14.301Z,99147.81
2022-11-28T06:58:42.608Z,99139.72
2022-11-28T07:01:20.667Z,99141.72
2022-11-28T07:03:49.065Z,99147.50
2022-11-28T07:06:18.705Z,99140.88
2022-11-28T07:08:46.885Z,99135.56
2022-11-28T07:11:20.423Z,99142.22
2022-11-28T07:13:48.947Z,99140.25
2022-11-28T07:16:19.768Z,99143.59
2022-11-28T07:18:47.659Z,99140.59
2022-11-28T07:21:15.706Z,99130.78
2022-11-28T07:23:44.371Z,99141.50
2022-11-28T07:26:14.348Z,99128.63
2022-11-28T07:28:43.142Z,99135.59
2022-11-28T07:31:12.963Z,99135.06
2022-11-28T07:33:43.157Z,99140.94
2022-11-28T07:36:13.710Z,99129.81
2022-11-28T07:38:41.217Z,99133.91
2022-11-28T07:41:11.409Z,99124.03
2022-11-28T07:43:40.762Z,99113.84
2022-11-28T07:46:10.979Z,99117.56
2022-11-28T07:48:38.979Z,99113.00
2022-11-28T07:51:27.582Z,99112.34
2022-11-28T07:53:55.434Z,99116.69
2022-11-28T07:56:25.601Z,99108.53
2022-11-28T07:58:53.371Z,99109.78
2022-11-28T08:01:25.827Z,99112.81
2022-11-28T08:03:53.723Z,99115.31
2022-11-28T08:06:23.420Z,99106.72
2022-11-28T08:08:52.266Z,99097.69
2022-11-28T08:11:21.031Z,99100.19
2022-11-28T08:13:49.529Z,99095.44
2022-11-28T08:16:20.514Z,99089.69
2022-11-28T08:18:49.549Z,99086.81
2022-11-28T08:21:19.567Z,99094.72
2022-11-28T08:23:47.347Z,99086.63
2022-11-28T08:26:16.912Z,99101.25
2022-11-28T08:28:44.815Z,99091.69
2022-11-28T08:31:20.411Z,99097.69
2022-11-28T08:33:49.814Z,99094.88
2022-11-28T08:36:19.613Z,99089.09
2022-11-28T08:39:03.334Z,99097.72
2022-11-28T08:41:35.550Z,99084.84
2022-11-28T08:44:02.957Z,99095.06
2022-11-28T08:46:30.827Z,99092.81
2022-11-28T08:48:59.389Z,99089.22
2022-11-28T08:51:26.471Z,99099.44
2022-11-28T08:53:59.567Z,99088.50
2022-11-28T08:56:27.475Z,99101.25
2022-11-28T08:58:55.761Z,99094.75
2022-11-28T09:01:25.517Z,99093.81
2022-11-28T09:03:54.688Z,99096.50
2022-11-28T09:06:23.064Z,99095.78
2022-11-28T09:08:51.687Z,99096.16
2022-11-28T09:11:20.517Z,99102.34
2022-11-28T09:13:48.578Z,99094.56
2022-11-28T09:16:16.007Z,99093.00
2022-11-28T09:18:43.548Z,99089.84
2022-11-28T09:21:13.229Z,99081.63
2022-11-28T09:23:42.968Z,99084.03
2022-11-28T09:26:16.654Z,99081.31
2022-11-28T09:28:44.480Z,99089.75
2022-11-28T09:31:15.248Z,99068.47
2022-11-28T09:33:43.885Z,99075.31
2022-11-28T09:36:13.712Z,99074.69
2022-11-28T09:38:41.714Z,99072.31
2022-11-28T09:41:33.101Z,99070.13
2022-11-28T09:44:20.794Z,99075.22
2022-11-28T09:46:50.688Z,99056.50
2022-11-28T09:49:40.010Z,99059.66
2022-11-28T09:52:25.149Z,99065.00
2022-11-28T09:55:30.074Z,99050.03
2022-11-28T09:57:57.644Z,99037.84
2022-11-28T10:00:37.842Z,99042.06
2022-11-28T10:03:21.430Z,99035.56
2022-11-28T10:06:03.070Z,99028.59
2022-11-28T10:08:32.997Z,99020.44
2022-11-28T10:11:32.957Z,99024.56
2022-11-28T10:14:22.005Z,99020.38
2022-11-28T10:17:01.086Z,99009.19
2022-11-28T10:20:01.357Z,99010.13
2022-11-28T10:22:55.570Z,99010.91
2022-11-28T10:25:27.381Z,99005.88
2022-11-28T10:27:57.363Z,99005.72
2022-11-28T10:30:29.260Z,99006.59
2022-11-28T10:33:19.455Z,99004.53
2022-11-28T10:35:56.988Z,98997.22
2022-11-28T10:38:27.695Z,98983.31
2022-11-28T10:41:05.091Z,98983.47
2022-11-28T10:44:05.427Z,98984.03
2022-11-28T10:46:32.641Z,98976.97
2022-11-28T10:49:27.006Z,98974.38
2022-11-28T10:52:18.677Z,98974.47
2022-11-28T10:54:54.750Z,98964.66
2022-11-28T10:57:27.868Z,98959.47
2022-11-28T11:00:20.826Z,98964.25
2022-11-28T11:02:57.012Z,98957.00
2022-11-28T11:05:28.057Z,98952.28
2022-11-28T11:08:18.207Z,98954.63
2022-11-28T11:11:09.122Z,98951.81
2022-11-28T11:13:57.973Z,98945.91
2022-11-28T11:16:25.772Z,98947.00
2022-11-28T11:18:55.900Z,98947.75
2022-11-28T11:21:26.093Z,98944.25
2022-11-28T11:24:18.642Z,98949.78
2022-11-28T11:26:49.466Z,98944.88
2022-11-28T11:29:28.960Z,98936.53
2022-11-28T11:32:03.738Z,98936.28
2022-11-28T11:34:42.977Z,98934.13
2022-11-28T11:37:37.332Z,98945.56
2022-11-28T11:40:32.898Z,98943.50
2022-11-28T11:43:01.710Z,98942.88
2022-11-28T11:45:35.162Z,98945.75
2022-11-28T11:48:04.485Z,98951.13
2022-11-28T11:50:33.421Z,98938.94
2022-11-28T11:53:03.747Z,98944.22
2022-11-28T11:55:34.571Z,98943.09
2022-11-28T11:58:06.134Z,98934.50
2022-11-28T12:00:39.265Z,98938.88
2022-11-28T12:03:27.449Z,98932.25
2022-11-28T12:06:13.637Z,98929.03
2022-11-28T12:09:07.655Z,98924.75
2022-11-28T12:14:36.831Z,98938.84
2022-11-28T12:17:58.594Z,98928.66
2022-11-28T12:20:41.782Z,98933.13
2022-11-28T12:23:21.046Z,98929.13
2022-11-28T12:25:48.706Z,98932.56
2022-11-28T12:28:15.733Z,98933.69
2022-11-28T12:31:21.099Z,98923.00
2022-11-28T12:34:32.179Z,98923.44
2022-11-28T12:37:11.061Z,98921.59
2022-11-28T12:40:18.222Z,98927.81
2022-11-28T12:42:53.774Z,98930.53
2022-11-28T12:45:35.089Z,98914.91
2022-11-28T12:48:21.849Z,98913.50
2022-11-28T12:51:23.554Z,98911.31
2022-11-28T12:54:00.640Z,98906.59
2022-11-28T12:56:39.556Z,98908.97
2022-11-28T12:59:28.359Z,98904.44
2022-11-28T13:02:19.119Z,98896.50
2022-11-28T13:05:05.369Z,98898.09
2022-11-28T13:08:15.634Z,98896.50
2022-11-28T13:10:51.655Z,98904.19
2022-11-28T13:13:27.639Z,98904.56
2022-11-28T13:16:25.141Z,98899.28
2022-11-28T13:19:26.908Z,98897.28
2022-11-28T13:22:12.867Z,98900.00
2022-11-28T13:24:52.832Z,98898.50
2022-11-28T13:27:42.059Z,98888.72
2022-11-28T13:30:26.316Z,98896.63
2022-11-28T13:33:06.094Z,98897.00
2022-11-28T13:35:35.361Z,98891.38
2022-11-28T13:41:35.341Z,98891.78
2022-11-28T13:44:08.505Z,98895.13
2022-11-28T13:46:35.852Z,98894.91
2022-11-28T13:49:15.577Z,98896.59
2022-11-28T13:51:48.095Z,98898.00
2022-11-28T13:54:18.338Z,98891.31
2022-11-28T13:57:27.188Z,98888.97
2022-11-28T14:00:02.144Z,98893.88
2022-11-28T14:02:42.398Z,98893.38
2022-11-28T14:05:33.896Z,98887.94
2022-11-28T14:08:02.807Z,98879.16
2022-11-28T14:11:09.052Z,98883.13
2022-11-28T14:13:54.749Z,98883.22
2022-11-28T14:17:00.388Z,98885.13
2022-11-28T14:19:55.107Z,98876.00
2022-11-28T14:22:41.227Z,98879.75
2022-11-28T14:25:13.936Z,98882.88
2022-11-28T14:27:54.097Z,98878.09
2022-11-28T14:30:42.324Z,98876.81
2022-11-28T14:33:21.774Z,98877.69
2022-11-28T14:35:54.863Z,98883.91
2022-11-28T14:38:31.925Z,98880.78
2022-11-28T14:41:03.487Z,98888.59
2022-11-28T14:43:53.083Z,98880.69
2022-11-28T14:46:29.681Z,98882.81
2022-11-28T14:48:59.949Z,98880.56
2022-11-28T14:51:48.825Z,98877.97
2022-11-28T14:54:42.295Z,98879.13
2022-11-28T14:57:45.133Z,98880.47
2022-11-28T15:00:23.566Z,98886.44
2022-11-28T15:03:05.329Z,98878.72
2022-11-28T15:05:45.025Z,98882.03
2022-11-28T15:08:30.178Z,98882.72
2022-11-28T15:11:19.508Z,98878.31
2022-11-28T15:14:12.669Z,98876.44
2022-11-28T15:16:50.113Z,98883.56
2022-11-28T15:19:20.516Z,98881.19
2022-11-28T15:21:51.025Z,98885.56
2022-11-28T15:24:28.012Z,98881.09
2022-11-28T15:26:58.678Z,98885.59
2022-11-28T15:29:31.828Z,98888.22
2022-11-28T15:32:00.202Z,98880.72
2022-11-28T15:34:38.581Z,98891.25
2022-11-28T15:37:17.933Z,98887.66
2022-11-28T15:39:50.010Z,98883.78
2022-11-28T15:42:22.917Z,98894.25
2022-11-28T15:44:59.731Z,98887.38
2022-11-28T15:47:28.902Z,98873.84
2022-11-28T15:50:17.421Z,98890.34
2022-11-28T15:53:18.207Z,98880.47
2022-11-28T15:55:45.599Z,98885.53
2022-11-28T15:58:20.027Z,98888.47
2022-11-28T16:01:27.024Z,98883.47
2022-11-28T16:04:03.810Z,98900.81
2022-11-28T16:06:34.374Z,98902.63
2022-11-28T16:09:07.401Z,98904.94
2022-11-28T16:11:35.925Z,98906.50
2022-11-28T16:14:11.476Z,98906.06
2022-11-28T16:16:39.582Z,98906.50
2022-11-28T16:19:18.833Z,98909.03
2022-11-28T16:21:54.031Z,98907.56
2022-11-28T16:24:33.648Z,98913.56
2022-11-28T16:27:06.403Z,98905.84
2022-11-28T16:29:36.807Z,98907.38
2022-11-28T16:32:22.303Z,98901.75
2022-11-28T16:34:52.478Z,98909.50
2022-11-28T16:37:31.250Z,98899.88
2022-11-28T16:40:01.727Z,98907.16
2022-11-28T16:42:29.206Z,98905.97
2022-11-28T16:44:57.320Z,98911.41
2022-11-28T16:47:30.611Z,98913.72
2022-11-28T16:50:20.287Z,98908.22
2022-11-28T16:53:00.793Z,98916.91
2022-11-28T16:55:30.866Z,98916.88
2022-11-28T16:58:13.102Z,98917.06
2022-11-28T17:00:48.046Z,98917.19
2022-11-28T17:03:46.486Z,98913.09
2022-11-28T17:06:20.322Z,98906.88
2022-11-28T17:08:47.460Z,98910.00
2022-11-28T17:11:17.113Z,98916.38
2022-11-28T17:13:44.262Z,98909.66
2022-11-28T17:16:21.894Z,98909.16
2022-11-28T17:18:49.727Z,98910.00
2022-11-28T17:21:27.142Z,98910.63
2022-11-28T17:23:54.232Z,98911.31
2022-11-28T17:26:21.799Z,98914.88
2022-11-28T17:28:48.904Z,98914.25
2022-11-28T17:31:16.408Z,98907.63
2022-11-28T17:33:44.989Z,98916.16
2022-11-28T17:36:12.900Z,98912.97
2022-11-28T17:38:40.138Z,98909.81
2022-11-28T17:41:13.401Z,98906.50
2022-11-28T17:43:41.408Z,98909.31
2022-11-28T17:46:09.844Z,98912.59
2022-11-28T17:48:37.052Z,98907.56
2022-11-28T17:51:04.824Z,98916.50
2022-11-28T17:53:32.142Z,98912.44
2022-11-28T17:56:00.108Z,98911.50
2022-11-28T17:58:27.572Z,98905.44
2022-11-28T18:01:00.507Z,98911.69
2022-11-28T18:03:28.984Z,98908.19
2022-11-28T18:05:57.553Z,98905.97
2022-11-28T18:08:24.694Z,98905.41
2022-11-28T18:11:02.645Z,98899.03
2022-11-28T18:13:30.028Z,98903.25
2022-11-28T18:15:58.119Z,98899.69
2022-11-28T18:18:25.580Z,98901.56
2022-11-28T18:20:53.261Z,98899.31
2022-11-28T18:23:20.611Z,98903.16
2022-11-28T18:25:48.191Z,98904.47
2022-11-28T18:28:18.839Z,98900.63
2022-11-28T18:30:48.193Z,98896.78
2022-11-28T18:33:16.060Z,98901.22
2022-11-28T18:35:43.602Z,98900.72
2022-11-28T18:38:14.427Z,98900.81
2022-11-28T18:40:42.047Z,98907.53
2022-11-28T18:43:10.129Z,98905.19
2022-11-28T18:45:39.665Z,98909.16
2022-11-28T18:48:12.485Z,98905.88
2022-11-28T18:50:39.957Z,98907.06
2022-11-28T18:53:07.075Z,98915.66
2022-11-28T18:55:34.693Z,98899.53
2022-11-28T18:58:03.030Z,98903.34
2022-11-28T19:00:30.445Z,98901.69
2022-11-28T19:02:57.657Z,98899.25
2022-11-28T19:05:38.946Z,98908.00
2022-11-28T19:08:09.173Z,98908.03
2022-11-28T19:10:40.460Z,98909.19
2022-11-28T19:13:09.778Z,98905.94
2022-11-28T19:15:41.090Z,98904.47
2022-11-28T19:18:08.258Z,98896.03
2022-11-28T19:20:36.275Z,98892.69
2022-11-28T19:23:03.599Z,98903.59
2022-11-28T19:25:32.760Z,98893.91
2022-11-28T19:28:03.685Z,98898.44
2022-11-28T19:30:32.401Z,98900.69
2022-11-28T19:33:00.141Z,98896.41
2022-11-28T19:35:30.984Z,98902.19
2022-11-28T19:38:01.594Z,98894.31
2022-11-28T19:40:29.063Z,98898.16
2022-11-28T19:42:59.743Z,98897.94
2022-11-28T19:45:27.445Z,98907.94
2022-11-28T19:47:54.962Z,98903.94
2022-11-28T19:50:22.523Z,98910.84
2022-11-28T19:52:49.703Z,98914.59
2022-11-28T19:55:17.339Z,98915.50
2022-11-28T19:57:44.410Z,98921.22
2022-11-28T20:00:12.611Z,98931.25
2022-11-28T20:02:39.885Z,98927.19
2022-11-28T20:05:07.625Z,98925.09
2022-11-28T20:07:35.266Z,98939.91
2022-11-28T20:10:02.986Z,98930.41
2022-11-28T20:12:30.249Z,98934.50
2022-11-28T20:14:58.004Z,98941.09
2022-11-28T20:17:25.039Z,98941.19
2022-11-28T20:19:52.450Z,98940.00
2022-11-28T20:22:23.058Z,98947.78
2022-11-28T20:24:51.013Z,98940.50
2022-11-28T20:27:18.062Z,98949.31
2022-11-28T20:29:45.816Z,98932.91
2022-11-28T20:32:13.290Z,98928.63
2022-11-28T20:34:40.695Z,98954.94
2022-11-28T20:37:07.996Z,98944.66
2022-11-28T20:39:35.401Z,98945.34
2022-11-28T20:42:02.484Z,98938.66
2022-11-28T20:44:29.958Z,98943.25
2022-11-28T20:46:57.117Z,98936.00
2022-11-28T20:49:24.647Z,98941.19
2022-11-28T20:51:51.689Z,98937.97
2022-11-28T20:54:19.346Z,98940.06
2022-11-28T20:59:35.560Z,98934.19
2022-11-28T21:02:02.705Z,98936.28
2022-11-28T21:04:30.200Z,98940.25
2022-11-28T21:06:57.222Z,98947.19
2022-11-28T21:09:24.652Z,98938.59
2022-11-28T21:11:59.609Z,98935.06
2022-11-28T21:14:29.077Z,98942.03
2022-11-28T21:16:57.861Z,98941.22
2022-11-28T21:19:25.519Z,98934.72
2022-11-28T21:21:52.830Z,98939.09
2022-11-28T21:24:20.308Z,98940.31
2022-11-28T21:26:53.012Z,98943.09
2022-11-28T21:29:22.942Z,98937.41
2022-11-28T21:31:50.178Z,98944.88
2022-11-28T21:34:19.615Z,98946.72
2022-11-28T21:36:47.418Z,98945.47
2022-11-28T21:39:18.983Z,98950.78
2022-11-28T21:41:46.545Z,98942.94
2022-11-28T21:44:14.125Z,98946.88
2022-11-28T21:46:41.188Z,98952.16
2022-11-28T21:49:08.752Z,98950.88
2022-11-28T21:51:36.681Z,98954.91
2022-11-28T21:54:04.552Z,98949.53
2022-11-28T21:56:31.758Z,98957.84
2022-11-28T21:58:59.506Z,98959.78
2022-11-28T22:01:26.702Z,98947.75
2022-11-28T22:03:57.764Z,98954.88
2022-11-28T22:06:29.223Z,98945.78
2022-11-28T22:08:57.190Z,98946.31
2022-11-28T22:11:24.658Z,98945.06
2022-11-28T22:13:53.105Z,98943.53
2022-11-28T22:16:21.972Z,98941.84
2022-11-28T22:18:51.297Z,98944.06
2022-11-28T22:24:06.513Z,98949.19
2022-11-28T22:26:34.023Z,98941.19
2022-11-28T22:29:01.621Z,98947.91
2022-11-28T22:31:28.840Z,98952.63
2022-11-28T22:33:56.904Z,98946.03
2022-11-28T22:36:24.732Z,98951.84
2022-11-28T22:38:56.495Z,98948.69
2022-11-28T22:41:29.007Z,98944.22
2022-11-28T22:44:00.590Z,98958.03
2022-11-28T22:46:28.804Z,98956.75
2022-11-28T22:48:56.259Z,98957.69
2022-11-28T22:51:25.864Z,98954.59
2022-11-28T22:53:55.298Z,98957.75
2022-11-28T22:56:22.991Z,98958.88
2022-11-28T22:58:50.671Z,98953.91
2022-11-28T23:01:21.406Z,98953.34
2022-11-28T23:03:49.260Z,98950.69
2022-11-28T23:06:18.972Z,98957.09
2022-11-28T23:08:47.558Z,98963.91
2022-11-28T23:11:17.495Z,98954.56
2022-11-28T23:13:48.164Z,98946.59
2022-11-28T23:16:20.357Z,98950.47
2022-11-28T23:18:50.142Z,98951.31
2022-11-28T23:21:19.043Z,98947.84
2022-11-28T23:23:46.755Z,98935.44
2022-11-28T23:26:16.571Z,98934.47
2022-11-28T23:28:45.418Z,98945.00
2022-11-28T23:31:21.861Z,98941.63
2022-11-28T23:33:49.483Z,98929.44
2022-11-28T23:36:19.619Z,98932.63
2022-11-28T23:38:49.569Z,98936.03
2022-11-28T23:41:17.210Z,98927.47
2022-11-28T23:43:45.222Z,98930.84
2022-11-28T23:46:14.066Z,98935.28
2022-11-28T23:48:42.867Z,98939.06
2022-11-28T23:51:10.654Z,98938.88
2022-11-28T23:53:38.345Z,98939.47
2022-11-28T23:56:20.434Z,98932.00
2022-11-28T23:58:48.255Z,98932.38
